Time;durP1;ratioP1;P1;durP2;ratioP2;P2;SDS_P1;SDS_P2;PMS_P1;PMS_P2;Temp;Humidity;BMP_temperature;BMP_pressure;BME280_temperature;BME280_humidity;BME280_pressure;Samples;Min_cycle;Max_cycle;Signal;HPM_P1;HPM_P2
2022/08/19 00:01:46;;;;;;;26.50;15.07;;;;;;;21.68;57.14;101241.13;4944898;28;124848;-74
2022/08/19 00:04:29;;;;;;;18.25;14.50;;;;;;;21.62;56.84;101241.66;4959357;28;118352;-73
2022/08/19 00:06:57;;;;;;;17.17;14.07;;;;;;;21.56;57.04;101254.66;4962163;28;119350;-74
2022/08/19 00:09:26;;;;;;;17.60;13.38;;;;;;;21.51;57.10;101240.75;4956672;28;123801;-73
2022/08/19 00:11:55;;;;;;;18.42;13.88;;;;;;;21.47;57.21;101244.66;4958775;28;123293;-73
2022/08/19 00:14:24;;;;;;;21.77;15.23;;;;;;;21.45;57.28;101245.78;4954561;28;119352;-73
2022/08/19 00:16:54;;;;;;;18.63;14.93;;;;;;;21.43;57.27;101248.56;4960892;28;118772;-73
2022/08/19 00:19:22;;;;;;;17.88;14.18;;;;;;;21.41;57.35;101255.94;4954315;28;125422;-73
2022/08/19 00:21:49;;;;;;;16.15;13.35;;;;;;;21.39;57.43;101253.38;4956684;28;123945;-73
2022/08/19 00:24:17;;;;;;;19.02;13.57;;;;;;;21.37;57.31;101254.50;4959174;28;119358;-74
2022/08/19 00:26:45;;;;;;;18.90;14.35;;;;;;;21.34;57.51;101254.72;4965798;28;118864;-74
2022/08/19 00:29:15;;;;;;;16.27;13.48;;;;;;;21.30;57.34;101247.91;4960829;28;124828;-74
2022/08/19 00:31:44;;;;;;;17.35;13.60;;;;;;;21.29;57.50;101251.59;4959858;28;125447;-74
2022/08/19 00:34:12;;;;;;;17.05;13.70;;;;;;;21.27;57.32;101250.88;4965942;28;119363;-74
2022/08/19 00:36:40;;;;;;;16.80;13.27;;;;;;;21.25;57.35;101250.13;4965548;28;120537;-74
2022/08/19 00:39:08;;;;;;;17.77;13.90;;;;;;;21.22;57.55;101239.63;4946074;28;123096;-73
2022/08/19 00:41:35;;;;;;;17.50;13.73;;;;;;;21.18;57.28;101253.34;4962552;28;123787;-73
2022/08/19 00:44:07;;;;;;;17.75;13.40;;;;;;;21.17;57.27;101254.34;4960724;28;119078;-73
2022/08/19 00:46:37;;;;;;;19.48;13.95;;;;;;;21.15;57.31;101245.53;4951386;28;118475;-73
2022/08/19 00:49:22;;;;;;;20.25;14.32;;;;;;;21.12;57.30;101242.22;4965482;28;124231;-73
2022/08/19 00:51:57;;;;;;;17.65;14.23;;;;;;;21.10;57.18;101242.34;4945877;28;124001;-74
2022/08/19 00:54:24;;;;;;;19.08;13.98;;;;;;;21.08;57.33;101249.72;4956052;28;119081;-73
2022/08/19 00:56:59;;;;;;;16.50;13.32;;;;;;;21.05;57.34;101244.56;4962080;28;118780;-73
2022/08/19 00:59:27;;;;;;;19.15;13.55;;;;;;;21.02;57.12;101239.44;4960450;28;123664;-73
2022/08/19 01:02:16;;;;;;;17.48;14.15;;;;;;;20.98;57.46;101243.34;4945874;28;123634;-73
2022/08/19 01:04:43;;;;;;;20.27;14.82;;;;;;;20.95;57.43;101254.41;4953980;28;118050;-73
2022/08/19 01:07:10;;;;;;;19.10;14.93;;;;;;;20.91;57.33;101253.78;4960614;28;119157;-73
2022/08/19 01:09:43;;;;;;;19.65;15.45;;;;;;;20.89;57.52;101257.56;4958289;28;122792;-73
2022/08/19 01:12:10;;;;;;;20.92;15.35;;;;;;;20.88;57.57;101258.56;4961058;28;123812;-73
2022/08/19 01:14:39;;;;;;;21.85;15.70;;;;;;;20.86;57.46;101265.94;4957065;28;118933;-72
2022/08/19 01:17:09;;;;;;;19.40;15.50;;;;;;;20.83;57.53;101260.78;4936746;28;118036;-73
2022/08/19 01:19:40;;;;;;;20.17;15.60;;;;;;;20.78;57.77;101267.41;4944803;28;124998;-73
2022/08/19 01:22:26;;;;;;;21.33;16.30;;;;;;;20.77;57.60;101268.38;4956120;28;123815;-73
2022/08/19 01:25:01;;;;;;;22.98;16.90;;;;;;;20.73;57.71;101256.16;4961118;28;120075;-73
2022/08/19 01:27:44;;;;;;;20.65;15.88;;;;;;;20.69;57.82;101249.31;4961752;28;120948;-73
2022/08/19 01:30:18;;;;;;;22.75;17.42;;;;;;;20.68;58.18;101246.72;4946347;28;124129;-73
2022/08/19 01:32:45;;;;;;;21.98;16.85;;;;;;;20.67;58.23;101256.66;4946828;28;123906;-73
2022/08/19 01:35:13;;;;;;;24.70;17.60;;;;;;;20.67;58.36;101253.97;4940292;28;118853;-73
2022/08/19 01:37:51;;;;;;;30.33;18.40;;;;;;;20.65;58.64;101253.22;4954130;28;119598;-73
2022/08/19 01:40:20;;;;;;;22.35;17.20;;;;;;;20.64;58.64;101251.50;4959607;28;122865;-73
2022/08/19 01:42:48;;;;;;;24.88;18.00;;;;;;;20.64;58.60;101251.50;4964853;28;123834;-73
2022/08/19 01:45:17;;;;;;;22.65;17.02;;;;;;;20.64;58.70;101256.88;4956450;28;118912;-73
2022/08/19 01:47:44;;;;;;;22.95;17.02;;;;;;;20.64;58.51;101262.28;4955500;28;119056;-73
2022/08/19 01:50:30;;;;;;;24.75;18.13;;;;;;;20.62;58.73;101258.84;4945789;28;123757;-74
2022/08/19 01:52:59;;;;;;;23.98;18.20;;;;;;;20.63;58.85;101265.97;4956627;28;124723;-74
2022/08/19 01:55:33;;;;;;;23.52;17.35;;;;;;;20.61;58.88;101267.94;4958240;28;118440;-74
2022/08/19 01:58:04;;;;;;;22.40;17.23;;;;;;;20.61;58.69;101267.94;4958167;28;119282;-73
2022/08/19 02:00:33;;;;;;;24.77;17.23;;;;;;;20.61;58.99;101273.31;4974897;28;123511;-73
2022/08/19 02:03:00;;;;;;;22.15;16.42;;;;;;;20.60;58.91;101276.97;4958320;28;124223;-73
2022/08/19 02:05:28;;;;;;;20.38;16.20;;;;;;;20.60;58.62;101282.34;4958746;28;119568;-72
2022/08/19 02:07:57;;;;;;;21.33;16.20;;;;;;;20.54;58.80;101277.44;4962070;28;119564;-73
2022/08/19 02:10:24;;;;;;;21.60;15.93;;;;;;;20.54;59.05;101272.06;4957192;28;124742;-74
2022/08/19 02:12:51;;;;;;;23.75;17.77;;;;;;;20.52;59.20;101274.00;4960693;28;122939;-73
2022/08/19 02:15:19;;;;;;;23.95;18.48;;;;;;;20.54;59.65;101272.06;4960986;28;119327;-73
2022/08/19 02:17:47;;;;;;;23.30;17.70;;;;;;;20.56;59.65;101286.25;4963218;28;119810;-74
2022/08/19 02:20:15;;;;;;;25.05;17.48;;;;;;;20.60;59.53;101282.34;4961666;28;124154;-74
2022/08/19 02:22:42;;;;;;;23.70;17.20;;;;;;;20.60;59.73;101271.59;4939756;28;123651;-74
2022/08/19 02:25:11;;;;;;;23.30;18.10;;;;;;;20.59;59.77;101270.69;4964527;28;119526;-73
2022/08/19 02:27:41;;;;;;;23.63;18.02;;;;;;;20.61;59.93;101267.94;4961271;28;118865;-73
2022/08/19 02:30:12;;;;;;;25.05;17.90;;;;;;;20.60;59.79;101268.88;4960672;28;124505;-74
2022/08/19 02:32:41;;;;;;;21.48;16.65;;;;;;;20.62;59.79;101269.63;4961119;28;124415;-73
2022/08/19 02:35:12;;;;;;;24.23;17.27;;;;;;;20.62;59.72;101275.00;4957699;28;118364;-74
2022/08/19 02:40:28;;;;;;;24.27;17.08;;;;;;;20.63;59.46;101282.13;4964675;28;124179;-74
2022/08/19 02:42:55;;;;;;;24.05;16.65;;;;;;;20.62;59.45;101280.38;4964274;28;123078;-73
2022/08/19 02:45:23;;;;;;;21.80;16.92;;;;;;;20.59;59.50;101280.63;4960096;28;119785;-72
2022/08/19 02:47:50;;;;;;;24.77;19.30;;;;;;;20.58;59.60;101286.97;4947667;28;118268;-73
2022/08/19 02:50:17;;;;;;;21.55;17.42;;;;;;;20.56;59.61;101278.16;4961066;28;123834;-73
2022/08/19 02:52:45;;;;;;;22.23;17.40;;;;;;;20.54;59.84;101282.81;4967274;28;122996;-73
2022/08/19 02:55:12;;;;;;;22.48;16.90;;;;;;;20.52;59.59;101291.00;4948729;28;119757;-73
2022/08/19 02:57:39;;;;;;;27.38;17.05;;;;;;;20.49;59.63;101285.84;4964964;28;118768;-74
2022/08/19 03:00:08;;;;;;;23.73;17.60;;;;;;;20.48;59.75;101292.25;4948493;28;122947;-74
2022/08/19 03:02:35;;;;;;;24.23;17.48;;;;;;;20.47;59.64;101282.44;4963017;28;124392;-73
2022/08/19 03:05:03;;;;;;;23.58;17.77;;;;;;;20.44;59.63;101280.00;4960510;28;120439;-73
2022/08/19 03:07:31;;;;;;;24.98;16.85;;;;;;;20.41;59.67;101277.56;4959927;28;119951;-74
2022/08/19 03:09:58;;;;;;;20.83;15.65;;;;;;;20.40;59.54;101282.09;4960858;28;123151;-73
2022/08/19 03:12:25;;;;;;;22.63;15.57;;;;;;;20.38;59.48;101281.34;4948503;28;122616;-74
2022/08/19 03:14:52;;;;;;;24.17;16.83;;;;;;;20.34;59.46;101282.59;4969836;28;119321;-74
2022/08/19 03:17:20;;;;;;;21.88;15.82;;;;;;;20.31;59.42;101282.81;4967029;28;119362;-74
2022/08/19 03:19:47;;;;;;;22.98;16.23;;;;;;;20.30;59.28;101280.25;4968251;28;124128;-73
2022/08/19 03:22:14;;;;;;;24.20;17.80;;;;;;;20.27;59.56;101281.34;4950098;28;122770;-73
2022/08/19 03:24:41;;;;;;;26.95;19.35;;;;;;;20.25;59.71;101288.69;4967267;28;119189;-74
2022/08/19 03:27:08;;;;;;;26.48;18.65;;;;;;;20.23;59.78;101286.13;4967837;28;119446;-74
2022/08/19 03:29:37;;;;;;;27.83;19.83;;;;;;;20.20;60.19;101290.88;4965992;28;124821;-74
2022/08/19 03:32:10;;;;;;;26.87;20.57;;;;;;;20.19;60.31;101294.53;4957533;28;123784;-74
2022/08/19 03:34:57;;;;;;;27.00;19.45;;;;;;;20.19;60.61;101299.91;4962721;28;118451;-72
2022/08/19 03:37:25;;;;;;;30.33;21.73;;;;;;;20.19;60.82;101295.41;4964591;28;119862;-74
2022/08/19 03:39:52;;;;;;;28.55;20.38;;;;;;;20.19;60.88;101300.78;4960183;28;123572;-74
2022/08/19 03:42:20;;;;;;;28.83;19.98;;;;;;;20.22;61.06;101299.69;4934955;28;123245;-73
2022/08/19 03:45:07;;;;;;;29.65;20.83;;;;;;;20.24;61.01;101292.34;4959486;28;119480;-74
2022/08/19 03:47:34;;;;;;;27.80;20.50;;;;;;;20.24;60.96;101286.97;4961874;28;117351;-74
2022/08/19 03:50:02;;;;;;;27.90;20.17;;;;;;;20.25;60.94;101277.94;4958633;28;124694;-74
2022/08/19 03:52:29;;;;;;;28.10;19.50;;;;;;;20.27;61.11;101281.34;4960988;28;124240;-74
2022/08/19 03:54:56;;;;;;;27.88;20.00;;;;;;;20.26;60.99;101290.38;4959600;28;120133;-74
2022/08/19 03:57:23;;;;;;;29.30;20.35;;;;;;;20.26;60.84;101285.00;4961177;28;119780;-73
2022/08/19 03:59:58;;;;;;;31.17;19.73;;;;;;;20.25;60.96;101288.69;4947241;28;123708;-73
2022/08/19 04:02:41;;;;;;;26.83;19.40;;;;;;;20.22;61.00;101284.38;4934258;28;124138;-73
2022/08/19 04:05:27;;;;;;;25.73;19.08;;;;;;;20.19;61.01;101283.78;4962244;28;118890;-73
2022/08/19 04:07:58;;;;;;;24.90;18.42;;;;;;;20.18;61.13;101292.84;4961071;28;118744;-74
2022/08/19 04:10:26;;;;;;;25.13;19.58;;;;;;;20.17;61.07;101291.09;4958953;28;123450;-73
2022/08/19 04:12:53;;;;;;;22.75;17.83;;;;;;;20.15;61.04;101287.69;4965000;28;123772;-74
2022/08/19 04:15:20;;;;;;;23.60;17.73;;;;;;;20.15;61.29;101282.31;4957209;28;119746;-74
2022/08/19 04:17:47;;;;;;;25.63;18.52;;;;;;;20.14;61.08;101283.31;4962952;28;121212;-74
2022/08/19 04:20:15;;;;;;;23.80;18.20;;;;;;;20.13;61.59;101273.50;4963158;28;123798;-74
2022/08/19 04:22:42;;;;;;;24.40;18.30;;;;;;;20.15;61.20;101279.63;4942037;28;122993;-74
2022/08/19 04:25:09;;;;;;;26.83;18.92;;;;;;;20.14;61.35;101275.22;4957552;28;118189;-73
2022/08/19 04:27:37;;;;;;;26.33;18.77;;;;;;;20.13;61.27;101265.44;4964987;28;119036;-73
2022/08/19 04:30:04;;;;;;;29.05;19.83;;;;;;;20.12;61.62;101261.06;4947741;28;124895;-73
2022/08/19 04:32:31;;;;;;;30.67;20.38;;;;;;;20.10;61.67;101269.22;4962418;28;124500;-73
2022/08/19 04:34:58;;;;;;;29.00;19.08;;;;;;;20.08;61.70;101270.31;4964421;28;119304;-73
2022/08/19 04:37:42;;;;;;;29.85;19.27;;;;;;;20.06;61.42;101272.25;4962685;28;118577;-73
2022/08/19 04:42:56;;;;;;;32.67;20.52;;;;;;;20.05;62.00;101254.44;4938225;28;123149;-74
2022/08/19 04:45:23;;;;;;;35.80;21.27;;;;;;;20.02;62.18;101261.78;4967422;28;120110;-73
2022/08/19 04:47:55;;;;;;;32.35;20.48;;;;;;;20.05;62.42;101262.50;4961260;28;119581;-73
2022/08/19 04:50:44;;;;;;;38.85;22.40;;;;;;;20.07;62.15;101274.00;4960731;28;123519;-73
2022/08/19 04:53:11;;;;;;;39.45;21.95;;;;;;;20.08;62.51;101270.31;4961663;28;123102;-74
2022/08/19 04:55:41;;;;;;;40.55;22.33;;;;;;;20.10;62.70;101265.66;4965544;28;118643;-73
2022/08/19 04:58:08;;;;;;;35.85;20.77;;;;;;;20.12;62.56;101266.44;4965415;28;119454;-72
2022/08/19 05:00:38;;;;;;;38.55;22.13;;;;;;;20.14;62.71;101269.84;4963601;28;124881;-74
2022/08/19 05:03:05;;;;;;;39.70;21.55;;;;;;;20.17;62.71;101270.47;4929806;28;123086;-73
2022/08/19 05:05:39;;;;;;;36.88;21.30;;;;;;;20.18;62.72;101274.00;4963495;28;118036;-73
2022/08/19 05:08:20;;;;;;;37.95;22.00;;;;;;;20.20;62.81;101280.13;4965060;28;118960;-74
2022/08/19 05:10:57;;;;;;;34.88;21.70;;;;;;;20.23;62.86;101282.56;4961329;28;124376;-74
2022/08/19 05:13:26;;;;;;;38.45;21.55;;;;;;;20.24;62.85;101281.59;4947863;28;122818;-74
2022/08/19 05:15:56;;;;;;;36.25;21.92;;;;;;;20.28;62.72;101292.97;4962636;28;118998;-73
2022/08/19 05:23:58;;;;;;;34.85;21.65;;;;;;;20.31;62.65;101298.97;4961858;28;123891;-74
2022/08/19 05:26:26;;;;;;;36.90;21.75;;;;;;;20.31;62.79;101293.56;4963171;28;118692;-74
2022/08/19 05:28:54;;;;;;;34.35;21.95;;;;;;;20.34;63.02;101293.34;4965507;28;119151;-74
2022/08/19 05:31:21;;;;;;;36.03;21.95;;;;;;;20.36;62.89;101296.78;4965388;28;124628;-74
2022/08/19 05:33:49;;;;;;;37.03;22.73;;;;;;;20.40;63.04;101295.53;4947300;28;122825;-73
2022/08/19 05:36:18;;;;;;;36.30;22.25;;;;;;;20.43;63.05;101311.41;4959893;28;120560;-73
2022/08/19 05:38:47;;;;;;;38.13;23.08;;;;;;;20.47;62.87;101313.88;4967191;28;120346;-73
2022/08/19 05:41:15;;;;;;;39.65;23.05;;;;;;;20.50;62.94;101316.34;4962238;28;123392;-73
2022/08/19 05:43:42;;;;;;;39.15;22.88;;;;;;;20.51;63.24;101304.56;4963600;28;124034;-71
2022/08/19 05:46:18;;;;;;;38.08;22.67;;;;;;;20.53;63.09;101313.38;4961976;28;117236;-73
2022/08/19 05:48:56;;;;;;;37.97;23.83;;;;;;;20.58;63.21;101311.19;4946736;28;118611;-72
2022/08/19 05:51:24;;;;;;;40.10;24.35;;;;;;;20.61;63.23;101308.28;4963938;28;124444;-73
2022/08/19 05:53:55;;;;;;;36.58;23.23;;;;;;;20.65;63.51;101317.84;4954617;28;123539;-73
2022/08/19 05:56:22;;;;;;;38.00;23.42;;;;;;;20.70;63.29;101310.25;4979591;28;118553;-72
2022/08/19 05:58:49;;;;;;;37.63;24.02;;;;;;;20.75;63.53;101313.41;4985745;28;118857;-73
2022/08/19 06:01:18;;;;;;;38.13;23.08;;;;;;;20.82;63.57;101312.94;4952354;28;123622;-72
2022/08/19 06:03:45;;;;;;;39.22;24.08;;;;;;;20.87;63.71;101306.19;4960118;28;123744;-73
2022/08/19 06:06:15;;;;;;;42.13;24.48;;;;;;;20.94;63.75;101317.31;4977926;28;118366;-73
2022/08/19 06:08:48;;;;;;;41.13;25.45;;;;;;;21.00;63.80;101316.78;4960770;28;120937;-73
2022/08/19 06:11:18;;;;;;;49.30;28.15;;;;;;;21.05;63.87;101309.19;4947259;28;122104;-73
2022/08/19 06:13:50;;;;;;;50.88;28.05;;;;;;;21.09;63.70;101316.03;4961808;28;123688;-73
2022/08/19 06:16:26;;;;;;;53.08;28.58;;;;;;;21.13;63.76;101312.09;4961715;28;119014;-73
2022/08/19 06:18:56;;;;;;;55.10;30.08;;;;;;;21.17;63.72;101313.59;4959292;28;118504;-73
2022/08/19 06:21:27;;;;;;;58.63;30.60;;;;;;;21.24;63.79;101313.94;4957558;28;125017;-73
2022/08/19 06:23:56;;;;;;;59.38;29.95;;;;;;;21.31;63.84;101319.69;4957577;28;123706;-73
2022/08/19 06:26:24;;;;;;;56.38;30.25;;;;;;;21.37;63.69;101319.16;4962437;28;119488;-73
2022/08/19 06:28:51;;;;;;;57.30;31.48;;;;;;;21.43;63.50;101315.09;4958246;28;119814;-73
2022/08/19 06:31:22;;;;;;;52.15;30.38;;;;;;;21.48;63.57;101316.47;4946820;28;123129;-74
2022/08/19 06:33:49;;;;;;;51.45;30.13;;;;;;;21.52;63.45;101317.91;4958819;28;124111;-73
2022/08/19 06:36:31;;;;;;;56.45;30.83;;;;;;;21.60;63.32;101313.72;4944487;28;118468;-74
2022/08/19 06:38:59;;;;;;;55.00;31.48;;;;;;;21.67;63.19;101321.16;4958684;28;118802;-73
2022/08/19 06:41:27;;;;;;;53.50;29.75;;;;;;;21.73;63.26;101319.78;4945316;28;124273;-73
2022/08/19 06:43:55;;;;;;;48.85;29.42;;;;;;;21.80;63.28;101323.66;4958466;28;122838;-72
2022/08/19 06:46:23;;;;;;;52.17;29.60;;;;;;;21.87;63.10;101322.16;4959622;28;119506;-73
2022/08/19 06:48:53;;;;;;;52.67;30.02;;;;;;;21.94;63.02;101320.66;4961604;28;119772;-73
2022/08/19 06:51:21;;;;;;;49.05;29.48;;;;;;;22.03;62.82;101315.44;4963329;28;125650;-73
2022/08/19 06:53:51;;;;;;;48.50;28.48;;;;;;;22.10;62.86;101316.63;4943526;28;124194;-73
2022/08/19 06:56:22;;;;;;;48.65;27.95;;;;;;;22.17;62.72;101323.22;4963776;28;119884;-73
2022/08/19 06:58:52;;;;;;;44.88;28.25;;;;;;;22.28;62.40;101325.00;4964285;28;118424;-73
2022/08/19 07:01:20;;;;;;;43.53;26.83;;;;;;;22.39;62.57;101316.81;4960552;28;125343;-72
2022/08/19 07:03:47;;;;;;;44.35;28.15;;;;;;;22.50;62.45;101318.59;4963425;28;123905;-73
2022/08/19 07:06:17;;;;;;;46.58;28.35;;;;;;;22.61;62.33;101321.19;4962690;28;118501;-73
2022/08/19 07:09:05;;;;;;;45.97;27.98;;;;;;;22.77;62.14;101319.81;4945584;28;118340;-71
2022/08/19 07:11:33;;;;;;;44.65;27.55;;;;;;;22.89;61.85;101324.13;4964310;28;124525;-73
2022/08/19 07:14:01;;;;;;;43.53;26.92;;;;;;;23.01;61.88;101317.59;4962620;28;123788;-73
2022/08/19 07:16:29;;;;;;;45.80;27.70;;;;;;;23.16;61.58;101315.41;4963949;28;120358;-73
2022/08/19 07:18:57;;;;;;;43.92;27.77;;;;;;;23.29;61.49;101324.09;4964308;28;119636;-73
2022/08/19 07:21:30;;;;;;;43.22;26.48;;;;;;;23.43;61.05;101336.38;4967622;28;123855;-73
2022/08/19 07:24:03;;;;;;;45.58;25.70;;;;;;;23.51;60.87;101336.50;4937885;28;123334;-73
2022/08/19 07:26:42;;;;;;;43.05;26.65;;;;;;;23.61;60.68;101335.66;4965103;28;118350;-73
2022/08/19 07:29:11;;;;;;;41.55;25.80;;;;;;;23.71;60.41;101331.06;4964383;28;118211;-73
2022/08/19 07:31:39;;;;;;;44.20;25.98;;;;;;;23.79;60.50;101328.56;4962185;28;124382;-73
2022/08/19 07:34:11;;;;;;;43.08;26.15;;;;;;;23.93;60.19;101334.53;4964465;28;124943;-73
2022/08/19 07:36:41;;;;;;;41.10;25.25;;;;;;;24.03;60.14;101340.75;4960314;28;120043;-73
2022/08/19 07:39:13;;;;;;;39.83;24.60;;;;;;;24.14;60.01;101337.91;4962301;28;119954;-73
2022/08/19 07:41:41;;;;;;;40.63;24.63;;;;;;;24.25;59.52;101335.03;4961835;28;122276;-73
2022/08/19 07:44:08;;;;;;;42.30;24.88;;;;;;;24.32;59.65;101335.31;4962901;28;123888;-73
2022/08/19 07:46:39;;;;;;;37.38;23.80;;;;;;;24.44;59.46;101349.50;4956548;28;119319;-73
2022/08/19 07:49:08;;;;;;;41.67;24.75;;;;;;;24.54;58.91;101349.50;4959926;28;119635;-73
2022/08/19 07:51:35;;;;;;;40.90;25.95;;;;;;;24.62;58.96;101347.78;4957024;28;124334;-73
2022/08/19 07:54:03;;;;;;;38.00;24.77;;;;;;;24.72;58.53;101353.16;4944500;28;122114;-73
2022/08/19 07:56:30;;;;;;;34.22;23.63;;;;;;;24.80;58.40;101349.69;4960965;28;119222;-73
2022/08/19 07:58:57;;;;;;;38.85;24.52;;;;;;;24.83;58.18;101347.53;4944973;28;118083;-73
2022/08/19 08:01:27;;;;;;;38.05;23.55;;;;;;;24.91;58.26;101349.47;4943995;28;123937;-72
2022/08/19 08:09:34;;;;;;;41.30;25.83;;;;;;;25.22;57.98;101360.00;4960406;28;119641;-73
2022/08/19 08:12:10;;;;;;;40.45;25.98;;;;;;;25.34;57.43;101358.81;4938324;28;123489;-73
2022/08/19 08:15:02;;;;;;;33.97;23.23;;;;;;;25.49;57.32;101361.00;4958575;28;124615;-73
2022/08/19 08:17:36;;;;;;;34.72;22.75;;;;;;;25.60;56.89;101363.50;4942917;28;119450;-74
2022/08/19 08:20:18;;;;;;;35.42;23.40;;;;;;;25.68;56.52;101371.69;4944756;28;119134;-74
2022/08/19 08:25:35;;;;;;;36.30;23.83;;;;;;;25.91;56.54;101371.22;4952836;28;124364;-73
2022/08/19 08:28:03;;;;;;;36.38;24.13;;;;;;;25.99;56.44;101380.34;4963007;28;119577;-73
2022/08/19 08:30:33;;;;;;;33.17;22.52;;;;;;;26.06;56.04;101383.25;4951844;28;118144;-73
2022/08/19 08:33:00;;;;;;;34.33;20.88;;;;;;;26.12;55.32;101385.34;4947001;28;123724;-73
2022/08/19 08:35:28;;;;;;;33.08;21.38;;;;;;;26.19;55.33;101383.69;4958748;28;123550;-73
2022/08/19 08:37:56;;;;;;;33.42;22.05;;;;;;;26.24;54.80;101377.81;4965320;28;118965;-73
2022/08/19 08:40:34;;;;;;;32.72;21.45;;;;;;;26.31;54.52;101378.00;4966727;28;119662;-73
2022/08/19 08:43:28;;;;;;;27.73;19.08;;;;;;;26.33;54.44;101386.84;4950455;28;124016;-74
2022/08/19 08:46:05;;;;;;;27.02;19.40;;;;;;;26.35;54.13;101379.38;4965394;28;124065;-73
2022/08/19 08:48:49;;;;;;;26.98;18.88;;;;;;;26.40;54.26;101383.31;4935725;28;119030;-74
2022/08/19 08:51:32;;;;;;;;;;;;;;;26.44;54.86;101383.84;4964723;28;118762;-73
2022/08/19 08:54:06;;;;;;;26.30;17.40;;;;;;;26.57;54.12;101384.28;4954454;28;124122;-73
2022/08/19 08:56:39;;;;;;;27.60;18.08;;;;;;;26.69;53.79;101389.47;4961459;28;121982;-73
2022/08/19 08:59:15;;;;;;;24.17;17.67;;;;;;;26.77;53.40;101384.09;4960241;28;119288;-73
2022/08/19 09:01:42;;;;;;;25.15;17.05;;;;;;;26.87;53.15;101384.81;4958013;28;120029;-73
2022/08/19 09:04:11;;;;;;;24.25;17.15;;;;;;;26.98;52.82;101376.38;4948339;28;123295;-73
2022/08/19 09:06:57;;;;;;;24.73;16.70;;;;;;;27.10;52.71;101373.34;4952931;28;124024;-74
2022/08/19 09:09:40;;;;;;;23.55;15.90;;;;;;;27.23;52.57;101381.88;4962772;28;118908;-74
2022/08/19 09:12:44;;;;;;;20.85;15.85;;;;;;;27.31;51.60;101379.25;4953789;28;118656;-74
2022/08/19 09:15:15;;;;;;;20.20;15.33;;;;;;;27.35;51.34;101383.31;4954708;28;122888;-73
2022/08/19 09:17:44;;;;;;;24.27;16.98;;;;;;;27.37;50.84;101381.28;4965198;28;124885;-73
2022/08/19 09:20:20;;;;;;;23.08;16.35;;;;;;;27.41;50.56;101380.94;4963831;28;119295;-72
2022/08/19 09:22:48;;;;;;;20.95;16.02;;;;;;;27.45;50.58;101371.44;4954039;28;118410;-74
2022/08/19 09:25:20;;;;;;;25.13;17.00;;;;;;;27.50;50.42;101377.22;4964243;28;123947;-74
2022/08/19 09:27:56;;;;;;;25.55;16.77;;;;;;;27.56;50.44;101380.13;4948746;28;123643;-73
2022/08/19 09:30:33;;;;;;;23.90;17.05;;;;;;;27.61;50.13;101376.88;4964782;28;118907;-73
2022/08/19 09:33:01;;;;;;;23.70;17.63;;;;;;;27.65;50.05;101371.97;4962530;28;119243;-74
2022/08/19 09:35:29;;;;;;;25.52;19.00;;;;;;;27.66;49.81;101369.09;4947071;28;125562;-73
2022/08/19 09:37:58;;;;;;;25.17;18.52;;;;;;;27.67;49.86;101375.38;4968823;28;123829;-73
2022/08/19 09:40:28;;;;;;;28.73;19.95;;;;;;;27.69;49.71;101371.47;4949497;28;118297;-73
2022/08/19 09:43:00;;;;;;;29.80;21.33;;;;;;;27.74;49.95;101377.25;4964735;28;119001;-73
2022/08/19 09:45:27;;;;;;;28.17;21.80;;;;;;;27.78;49.84;101375.03;4961818;28;123346;-73
2022/08/19 09:47:56;;;;;;;27.77;22.02;;;;;;;27.87;49.63;101381.34;4967709;28;122825;-73
2022/08/19 09:50:24;;;;;;;26.77;21.10;;;;;;;27.87;49.43;101373.19;4963367;28;96786;-73
2022/08/19 09:52:52;;;;;;;28.67;21.40;;;;;;;27.85;49.42;101384.25;4961478;28;120433;-73
2022/08/19 09:55:25;;;;;;;28.95;21.63;;;;;;;27.86;49.26;101385.06;4963354;28;123372;-73
2022/08/19 09:58:00;;;;;;;30.73;21.40;;;;;;;27.87;48.86;101390.34;4964755;28;123617;-73
2022/08/19 10:00:27;;;;;;;30.02;23.13;;;;;;;27.92;48.78;101385.28;4958537;28;120646;-73
2022/08/19 10:02:54;;;;;;;28.80;21.92;;;;;;;27.99;48.80;101390.94;4959941;28;118714;-73
2022/08/19 10:08:11;;;;;;;29.40;21.50;;;;;;;28.04;48.70;101393.13;4955785;28;123762;-74
2022/08/19 10:10:43;;;;;;;26.88;20.75;;;;;;;27.98;48.43;101404.72;4953652;28;120214;-73
2022/08/19 10:13:15;;;;;;;29.13;22.45;;;;;;;27.90;48.45;101402.84;4953356;28;119684;-73
2022/08/19 10:15:42;;;;;;;23.90;18.85;;;;;;;27.83;48.02;101401.78;4960800;28;123364;-73
2022/08/19 10:18:17;;;;;;;25.58;18.73;;;;;;;27.79;48.32;101400.41;4963366;28;123114;-73
2022/08/19 10:20:46;;;;;;;22.05;18.05;;;;;;;27.82;48.00;101400.06;4946642;28;119350;-73
2022/08/19 10:23:20;;;;;;;24.33;17.15;;;;;;;27.81;48.01;101392.94;4963014;28;119330;-74
2022/08/19 10:25:49;;;;;;;22.15;16.63;;;;;;;27.81;48.19;101401.09;4948794;28;124567;-73
2022/08/19 10:28:16;;;;;;;21.27;16.70;;;;;;;27.83;48.41;101390.88;4967142;28;123766;-73
2022/08/19 10:30:46;;;;;;;21.10;17.80;;;;;;;27.89;48.47;101391.06;4947312;28;119993;-73
2022/08/19 10:33:14;;;;;;;20.55;15.55;;;;;;;27.98;47.97;101394.66;4959824;28;119343;-73
2022/08/19 10:36:04;;;;;;;20.77;15.30;;;;;;;28.01;47.47;101394.31;4962428;28;124033;-74
2022/08/19 10:38:33;;;;;;;25.15;16.73;;;;;;;28.03;47.42;101395.00;4959708;28;123705;-73
2022/08/19 10:41:09;;;;;;;23.45;17.30;;;;;;;28.04;47.27;101388.53;4947334;28;120610;-73
2022/08/19 10:43:38;;;;;;;25.60;18.92;;;;;;;28.08;47.45;101399.94;4963750;28;120217;-73
2022/08/19 10:46:08;;;;;;;25.60;17.92;;;;;;;28.08;47.15;101395.31;4947230;28;124394;-73
2022/08/19 10:48:43;;;;;;;24.83;18.15;;;;;;;28.08;47.24;101399.94;4950955;28;123055;-73
2022/08/19 10:53:58;;;;;;;22.02;16.77;;;;;;;28.05;46.97;101394.81;4941754;28;117883;-74
2022/08/19 10:59:13;;;;;;;22.10;16.52;;;;;;;28.03;46.91;101392.28;4962909;28;124163;-73
2022/08/19 11:01:43;;;;;;;23.00;16.77;;;;;;;28.06;46.69;101381.03;4964647;28;119437;-72
2022/08/19 11:04:13;;;;;;;24.20;17.20;;;;;;;28.13;47.20;101382.06;4966836;28;119247;-73
2022/08/19 11:06:43;;;;;;;22.75;15.52;;;;;;;28.21;46.70;101393.97;4960568;28;123089;-73
2022/08/19 11:09:11;;;;;;;21.67;15.43;;;;;;;28.25;46.61;101384.41;4967301;28;124089;-73
2022/08/19 11:11:42;;;;;;;20.08;14.52;;;;;;;28.27;46.51;101387.81;4968370;28;119111;-73
2022/08/19 11:14:13;;;;;;;20.02;15.48;;;;;;;28.27;46.57;101379.66;4946274;28;117932;-73
2022/08/19 11:16:42;;;;;;;21.88;15.85;;;;;;;28.31;46.55;101390.03;4949974;28;123112;-73
2022/08/19 11:19:11;;;;;;;22.60;16.20;;;;;;;28.36;46.10;101381.34;4967042;28;124416;-73
2022/08/19 11:21:41;;;;;;;24.77;16.98;;;;;;;28.39;46.34;101383.72;4962067;28;119613;-73
2022/08/19 11:24:14;;;;;;;24.27;16.38;;;;;;;28.46;46.13;101384.75;4959025;28;118897;-73
2022/08/19 11:26:43;;;;;;;23.15;17.17;;;;;;;28.57;46.13;101399.88;4949423;28;123057;-73
2022/08/19 11:29:12;;;;;;;24.02;17.80;;;;;;;28.63;46.43;101387.44;4960099;28;124747;-76
2022/08/19 11:31:42;;;;;;;25.20;17.35;;;;;;;28.68;45.89;101385.03;4946034;28;119825;-74
2022/08/19 11:34:13;;;;;;;21.00;17.05;;;;;;;28.68;45.38;101374.16;4936034;28;118797;-72
2022/08/19 11:36:43;;;;;;;24.08;16.98;;;;;;;28.68;46.16;101369.53;4946567;28;123593;-74
2022/08/19 11:39:13;;;;;;;26.17;18.88;;;;;;;28.76;46.02;101370.53;4964657;28;124530;-74
2022/08/19 11:41:40;;;;;;;24.65;18.50;;;;;;;28.84;45.50;101374.09;4967403;28;119225;-74
2022/08/19 11:44:07;;;;;;;24.15;17.55;;;;;;;28.92;45.69;101365.88;4965913;28;118785;-75
2022/08/19 11:46:36;;;;;;;23.42;17.70;;;;;;;29.00;45.34;101372.31;4965209;28;123842;-74